createdAt,value
2022-09-02T00:00:44.045Z,14.10
2022-09-02T00:03:51.538Z,14.07
2022-09-02T00:06:59.723Z,14.04
2022-09-02T00:10:08.189Z,13.99
2022-09-02T00:13:15.770Z,13.99
2022-09-02T00:16:24.008Z,13.98
2022-09-02T00:19:31.763Z,13.89
2022-09-02T00:22:39.730Z,13.74
2022-09-02T00:25:48.799Z,13.58
2022-09-02T00:28:56.755Z,13.47
2022-09-02T00:32:04.729Z,13.47
2022-09-02T00:35:13.247Z,13.49
2022-09-02T00:38:21.218Z,13.49
2022-09-02T00:41:29.177Z,13.52
2022-09-02T00:44:37.659Z,13.49
2022-09-02T00:47:45.179Z,13.38
2022-09-02T00:50:53.446Z,13.17
2022-09-02T00:54:01.971Z,13.03
2022-09-02T00:57:09.872Z,12.92
2022-09-02T01:00:18.352Z,12.82
2022-09-02T01:03:26.212Z,12.77
2022-09-02T01:06:34.191Z,12.71
2022-09-02T01:09:42.393Z,12.84
2022-09-02T01:12:50.226Z,12.84
2022-09-02T01:15:57.820Z,12.92
2022-09-02T01:19:05.907Z,12.93
2022-09-02T01:22:14.298Z,12.85
2022-09-02T01:25:22.229Z,12.75
2022-09-02T01:28:30.197Z,12.69
2022-09-02T01:31:38.275Z,12.75
2022-09-02T01:34:46.006Z,12.78
2022-09-02T01:37:55.628Z,12.77
2022-09-02T01:41:04.111Z,12.62
2022-09-02T01:44:11.777Z,12.45
2022-09-02T01:47:19.890Z,12.27
2022-09-02T01:50:27.903Z,12.16
2022-09-02T01:53:35.512Z,12.08
2022-09-02T01:56:43.667Z,12.06
2022-09-02T01:59:52.057Z,12.09
2022-09-02T02:02:59.457Z,12.06
2022-09-02T02:06:08.007Z,12.04
2022-09-02T02:09:16.326Z,11.99
2022-09-02T02:12:23.798Z,11.96
2022-09-02T02:16:01.592Z,11.96
2022-09-02T02:19:09.822Z,11.90
2022-09-02T02:22:17.293Z,11.96
2022-09-02T02:25:25.695Z,12.01
2022-09-02T02:28:33.781Z,12.05
2022-09-02T02:31:41.707Z,12.06
2022-09-02T02:34:49.877Z,12.11
2022-09-02T02:37:57.248Z,12.13
2022-09-02T02:41:05.566Z,12.12
2022-09-02T02:44:13.712Z,12.09
2022-09-02T02:47:21.179Z,12.11
2022-09-02T02:50:29.038Z,12.11
2022-09-02T02:53:37.019Z,12.08
2022-09-02T02:56:44.877Z,12.05
2022-09-02T02:59:52.858Z,11.96
2022-09-02T03:03:00.852Z,11.86
2022-09-02T03:06:09.028Z,11.82
2022-09-02T03:09:16.945Z,11.75
2022-09-02T03:12:24.635Z,11.67
2022-09-02T03:15:32.781Z,11.65
2022-09-02T03:18:40.204Z,11.59
2022-09-02T03:21:48.174Z,11.54
2022-09-02T03:24:56.178Z,11.44
2022-09-02T03:28:04.086Z,11.38
2022-09-02T03:31:12.051Z,11.39
2022-09-02T03:34:19.378Z,11.43
2022-09-02T03:37:26.850Z,11.41
2022-09-02T03:40:34.983Z,11.31
2022-09-02T03:43:42.745Z,11.20
2022-09-02T03:46:50.590Z,11.13
2022-09-02T03:49:58.791Z,11.03
2022-09-02T03:53:06.329Z,11.07
2022-09-02T03:56:14.662Z,11.10
2022-09-02T03:59:22.944Z,11.09
2022-09-02T04:02:30.617Z,11.09
2022-09-02T04:05:38.906Z,10.99
2022-09-02T04:08:47.066Z,10.94
2022-09-02T04:11:54.489Z,10.91
2022-09-02T04:15:02.517Z,10.92
2022-09-02T04:18:10.827Z,10.89
2022-09-02T04:21:18.127Z,10.91
2022-09-02T04:24:26.206Z,10.86
2022-09-02T04:27:34.020Z,10.89
2022-09-02T04:30:41.617Z,10.88
2022-09-02T04:33:49.871Z,10.86
2022-09-02T04:36:57.921Z,10.89
2022-09-02T04:40:05.876Z,10.89
2022-09-02T04:43:14.094Z,10.91
2022-09-02T04:46:33.927Z,10.92
2022-09-02T04:49:26.675Z,10.92
2022-09-02T04:52:34.746Z,10.92
2022-09-02T04:55:42.595Z,10.94
2022-09-02T04:58:50.355Z,10.98
2022-09-02T05:01:58.259Z,11.02
2022-09-02T05:05:06.347Z,11.03
2022-09-02T05:08:14.136Z,11.03
2022-09-02T05:11:21.837Z,11.11
2022-09-02T05:14:30.880Z,11.14
2022-09-02T05:17:38.680Z,11.14
2022-09-02T05:20:46.589Z,11.17
2022-09-02T05:23:55.201Z,11.21
2022-09-02T05:27:02.812Z,11.21
2022-09-02T05:30:11.282Z,11.28
2022-09-02T05:33:20.122Z,11.32
2022-09-02T05:36:27.863Z,11.36
2022-09-02T05:39:36.074Z,11.39
2022-09-02T05:42:44.485Z,11.41
2022-09-02T05:45:53.101Z,11.47
2022-09-02T05:49:01.693Z,11.57
2022-09-02T05:52:10.210Z,11.75
2022-09-02T05:55:17.877Z,11.94
2022-09-02T05:58:26.109Z,12.02
2022-09-02T06:01:34.221Z,12.08
2022-09-02T06:04:42.161Z,12.23
2022-09-02T06:07:50.621Z,12.38
2022-09-02T06:10:58.352Z,12.54
2022-09-02T06:14:06.771Z,12.66
2022-09-02T06:17:14.843Z,12.79
2022-09-02T06:20:22.516Z,12.95
2022-09-02T06:23:30.956Z,13.04
2022-09-02T06:26:39.123Z,13.24
2022-09-02T06:29:47.324Z,13.36
2022-09-02T06:32:55.576Z,13.49
2022-09-02T06:36:03.598Z,13.67
2022-09-02T06:39:11.710Z,13.83
2022-09-02T06:42:20.360Z,13.99
2022-09-02T06:45:28.390Z,14.12
2022-09-02T06:48:36.526Z,14.20
2022-09-02T06:51:45.041Z,14.37
2022-09-02T06:54:53.090Z,14.47
2022-09-02T06:58:01.013Z,14.57
2022-09-02T07:01:09.083Z,14.67
2022-09-02T07:04:16.906Z,14.78
2022-09-02T07:07:25.295Z,14.88
2022-09-02T07:10:33.477Z,14.99
2022-09-02T07:13:41.748Z,15.11
2022-09-02T07:16:50.201Z,15.23
2022-09-02T07:19:58.107Z,15.38
2022-09-02T07:23:06.320Z,15.52
2022-09-02T07:26:14.450Z,15.68
2022-09-02T07:29:22.792Z,15.85
2022-09-02T07:32:30.952Z,16.04
2022-09-02T07:35:39.132Z,16.26
2022-09-02T07:38:47.634Z,16.59
2022-09-02T07:41:55.754Z,16.88
2022-09-02T07:45:03.855Z,17.11
2022-09-02T07:48:12.355Z,17.32
2022-09-02T07:51:20.087Z,17.47
2022-09-02T07:54:28.608Z,17.76
2022-09-02T07:57:36.781Z,18.02
2022-09-02T08:00:44.430Z,18.27
2022-09-02T08:03:53.149Z,18.46
2022-09-02T08:07:01.061Z,18.57
2022-09-02T08:10:09.161Z,18.70
2022-09-02T08:13:17.910Z,18.90
2022-09-02T08:16:25.585Z,19.06
2022-09-02T08:19:34.487Z,19.15
2022-09-02T08:22:43.384Z,19.18
2022-09-02T08:25:52.089Z,19.38
2022-09-02T08:29:00.786Z,19.57
2022-09-02T08:32:09.337Z,19.72
2022-09-02T08:35:16.870Z,19.87
2022-09-02T08:38:25.272Z,19.94
2022-09-02T08:41:33.342Z,19.91
2022-09-02T08:44:41.620Z,20.05
2022-09-02T08:47:50.614Z,20.23
2022-09-02T08:50:58.787Z,20.33
2022-09-02T08:54:06.517Z,20.28
2022-09-02T08:57:14.917Z,20.27
2022-09-02T09:00:23.031Z,20.53
2022-09-02T09:03:31.219Z,20.66
2022-09-02T09:06:39.337Z,20.90
2022-09-02T09:09:47.752Z,21.06
2022-09-02T09:12:55.571Z,21.17
2022-09-02T09:16:03.023Z,21.19
2022-09-02T09:19:11.256Z,21.32
2022-09-02T09:22:19.006Z,21.50
2022-09-02T09:25:28.096Z,21.53
2022-09-02T09:28:36.148Z,21.53
2022-09-02T09:31:43.499Z,21.63
2022-09-02T09:34:51.682Z,21.63
2022-09-02T09:37:59.640Z,21.83
2022-09-02T09:41:07.112Z,21.98
2022-09-02T09:44:15.444Z,22.07
2022-09-02T09:47:22.855Z,22.10
2022-09-02T09:50:31.154Z,22.06
2022-09-02T09:53:40.065Z,22.04
2022-09-02T09:56:47.958Z,21.97
2022-09-02T09:59:56.960Z,22.12
2022-09-02T10:03:04.596Z,22.12
2022-09-02T10:06:12.648Z,22.43
2022-09-02T10:09:20.271Z,22.59
2022-09-02T10:12:27.964Z,22.84
2022-09-02T10:15:36.124Z,22.83
2022-09-02T10:18:43.474Z,22.89
2022-09-02T10:21:52.765Z,22.96
2022-09-02T10:25:00.445Z,22.96
2022-09-02T10:28:07.860Z,23.20
2022-09-02T10:31:15.879Z,23.23
2022-09-02T10:34:23.691Z,23.15
2022-09-02T10:37:31.091Z,23.24
2022-09-02T10:40:39.506Z,23.46
2022-09-02T10:43:47.546Z,23.52
2022-09-02T10:46:55.235Z,23.64
2022-09-02T10:50:03.676Z,23.67
2022-09-02T10:53:11.226Z,23.86
2022-09-02T10:56:19.529Z,23.75
2022-09-02T10:59:27.962Z,23.65
2022-09-02T11:02:35.752Z,23.62
2022-09-02T11:05:44.463Z,23.64
2022-09-02T11:08:52.671Z,23.22
2022-09-02T11:12:00.751Z,23.53
2022-09-02T11:15:09.305Z,23.86
2022-09-02T11:18:17.407Z,24.26
2022-09-02T11:21:25.718Z,24.50
2022-09-02T11:24:29.149Z,24.42
2022-09-02T11:27:44.626Z,24.44
2022-09-02T11:30:42.154Z,24.42
2022-09-02T11:33:50.351Z,24.53
2022-09-02T11:36:58.613Z,24.68
2022-09-02T11:40:30.554Z,24.75
2022-09-02T11:43:12.672Z,24.91
2022-09-02T11:46:21.590Z,24.88
2022-09-02T11:49:29.397Z,24.71
2022-09-02T11:52:37.872Z,24.90
2022-09-02T11:55:45.510Z,25.20
2022-09-02T11:58:53.850Z,25.27
2022-09-02T12:02:02.043Z,24.98
2022-09-02T12:05:10.467Z,24.80
2022-09-02T12:08:19.854Z,24.63
2022-09-02T12:11:28.009Z,24.76
2022-09-02T12:14:37.055Z,25.34
2022-09-02T12:17:44.740Z,25.61
2022-09-02T12:20:52.850Z,25.79
2022-09-02T12:24:00.711Z,26.01
2022-09-02T12:27:08.443Z,26.20
2022-09-02T12:30:16.283Z,26.28
2022-09-02T12:33:24.735Z,26.36
2022-09-02T12:36:32.597Z,26.67
2022-09-02T12:39:40.449Z,26.86
2022-09-02T12:42:48.640Z,27.09
2022-09-02T12:45:56.011Z,27.42
2022-09-02T12:49:04.161Z,27.46
2022-09-02T12:52:12.045Z,26.83
2022-09-02T12:55:19.334Z,26.55
2022-09-02T12:58:27.303Z,26.61
2022-09-02T13:01:35.120Z,26.55
2022-09-02T13:04:42.948Z,26.35
2022-09-02T13:07:51.160Z,26.17
2022-09-02T13:10:58.802Z,26.01
2022-09-02T13:14:06.603Z,25.86
2022-09-02T13:17:33.037Z,25.65
2022-09-02T13:20:20.047Z,25.72
2022-09-02T13:23:31.251Z,25.84
2022-09-02T13:26:48.346Z,25.59
2022-09-02T13:29:33.729Z,25.32
2022-09-02T13:32:41.570Z,25.17
2022-09-02T13:35:49.761Z,25.10
2022-09-02T13:38:57.488Z,25.35
2022-09-02T13:42:05.315Z,25.74
2022-09-02T13:45:07.615Z,26.18
2022-09-02T13:48:15.129Z,26.02
2022-09-02T13:51:23.049Z,25.80
2022-09-02T13:54:30.739Z,25.68
2022-09-02T13:57:38.057Z,25.54
2022-09-02T14:00:46.094Z,25.38
2022-09-02T14:03:53.982Z,24.82
2022-09-02T14:07:01.844Z,24.57
2022-09-02T14:10:09.980Z,24.59
2022-09-02T14:13:17.378Z,24.53
2022-09-02T14:16:25.737Z,24.50
2022-09-02T14:19:33.816Z,24.63
2022-09-02T14:22:41.257Z,25.05
2022-09-02T14:25:49.232Z,25.19
2022-09-02T14:28:56.866Z,25.01
2022-09-02T14:32:04.414Z,24.97
2022-09-02T14:35:12.545Z,25.07
2022-09-02T14:38:20.218Z,25.52
2022-09-02T14:41:27.988Z,25.74
2022-09-02T14:44:35.839Z,25.71
2022-09-02T14:47:43.963Z,25.44
2022-09-02T14:50:51.851Z,25.06
2022-09-02T14:53:59.420Z,24.79
2022-09-02T14:57:07.634Z,24.50
2022-09-02T15:00:15.385Z,24.37
2022-09-02T15:03:23.117Z,24.41
2022-09-02T15:06:31.207Z,24.57
2022-09-02T15:09:38.548Z,24.63
2022-09-02T15:12:46.610Z,24.60
2022-09-02T15:15:54.431Z,24.47
2022-09-02T15:19:01.856Z,24.20
2022-09-02T15:22:10.034Z,23.92
2022-09-02T15:25:19.515Z,23.67
2022-09-02T15:28:27.311Z,23.52
2022-09-02T15:31:35.887Z,23.57
2022-09-02T15:34:43.868Z,23.50
2022-09-02T15:37:52.411Z,23.46
2022-09-02T15:41:01.271Z,23.50
2022-09-02T15:44:08.707Z,23.50
2022-09-02T15:47:16.914Z,23.45
2022-09-02T15:50:25.462Z,23.46
2022-09-02T15:53:25.306Z,23.53
2022-09-02T15:56:34.338Z,23.86
2022-09-02T15:59:42.439Z,24.19
2022-09-02T16:02:49.958Z,24.31
2022-09-02T16:05:57.740Z,24.23
2022-09-02T16:09:05.214Z,24.24
2022-09-02T16:12:12.644Z,24.37
2022-09-02T16:15:20.566Z,24.19
2022-09-02T16:18:27.966Z,24.00
2022-09-02T16:21:35.926Z,23.89
2022-09-02T16:24:44.029Z,23.75
2022-09-02T16:27:51.512Z,23.52
2022-09-02T16:30:59.327Z,23.40
2022-09-02T16:34:07.671Z,23.49
2022-09-02T16:37:15.188Z,23.52
2022-09-02T16:40:23.397Z,23.52
2022-09-02T16:43:31.325Z,23.35
2022-09-02T16:46:39.087Z,23.32
2022-09-02T16:49:46.888Z,23.23
2022-09-02T16:52:54.639Z,23.12
2022-09-02T16:56:02.370Z,23.08
2022-09-02T16:59:10.690Z,22.94
2022-09-02T17:02:19.078Z,22.77
2022-09-02T17:05:27.574Z,22.59
2022-09-02T17:08:35.822Z,22.52
2022-09-02T17:11:43.623Z,22.49
2022-09-02T17:14:51.353Z,22.39
2022-09-02T17:17:59.168Z,22.23
2022-09-02T17:21:06.899Z,22.07
2022-09-02T17:24:14.232Z,21.94
2022-09-02T17:27:21.913Z,21.76
2022-09-02T17:30:29.728Z,21.66
2022-09-02T17:33:37.084Z,21.53
2022-09-02T17:36:45.214Z,21.38
2022-09-02T17:39:53.634Z,21.23
2022-09-02T17:43:01.058Z,21.09
2022-09-02T17:46:09.271Z,21.04
2022-09-02T17:49:17.844Z,20.90
2022-09-02T17:52:25.762Z,20.80
2022-09-02T17:55:34.073Z,20.66
2022-09-02T17:58:41.454Z,20.56
2022-09-02T18:01:49.591Z,20.42
2022-09-02T18:04:57.776Z,20.34
2022-09-02T18:08:05.079Z,20.24
2022-09-02T18:11:13.339Z,20.12
2022-09-02T18:14:21.078Z,20.03
2022-09-02T18:17:28.899Z,19.84
2022-09-02T18:20:36.952Z,19.72
2022-09-02T18:23:44.702Z,19.61
2022-09-02T18:26:52.253Z,19.50
2022-09-02T18:30:00.554Z,19.38
2022-09-02T18:33:08.617Z,19.25
2022-09-02T18:36:16.606Z,19.17
2022-09-02T18:39:24.306Z,19.11
2022-09-02T18:42:32.119Z,19.06
2022-09-02T18:45:39.851Z,19.02
2022-09-02T18:48:47.460Z,18.92
2022-09-02T18:51:50.651Z,18.86
2022-09-02T18:54:58.502Z,18.79
2022-09-02T18:58:06.694Z,18.76
2022-09-02T19:01:14.559Z,18.72
2022-09-02T19:04:25.121Z,18.68
2022-09-02T19:07:24.635Z,18.61
2022-09-02T19:10:32.007Z,18.59
2022-09-02T19:13:40.149Z,18.62
2022-09-02T19:16:48.369Z,18.58
2022-09-02T19:19:55.860Z,18.50
2022-09-02T19:23:04.108Z,18.47
2022-09-02T19:26:11.952Z,18.44
2022-09-02T19:29:19.738Z,18.44
2022-09-02T19:32:21.735Z,18.40
2022-09-02T19:35:29.549Z,18.36
2022-09-02T19:38:37.253Z,18.28
2022-09-02T19:41:45.547Z,18.28
2022-09-02T19:44:52.868Z,18.27
2022-09-02T19:48:16.948Z,18.22
2022-09-02T19:51:06.700Z,18.18
2022-09-02T19:54:14.130Z,18.10
2022-09-02T19:57:22.214Z,18.03
2022-09-02T20:00:29.851Z,18.02
2022-09-02T20:03:37.661Z,17.94
2022-09-02T20:06:45.812Z,17.85
2022-09-02T20:09:53.607Z,17.79
2022-09-02T20:13:01.576Z,17.76
2022-09-02T20:16:09.435Z,17.74
2022-09-02T20:19:17.118Z,17.78
2022-09-02T20:22:24.940Z,17.84
2022-09-02T20:25:32.331Z,17.87
2022-09-02T20:28:45.016Z,17.89
2022-09-02T20:31:42.907Z,17.97
2022-09-02T20:34:50.823Z,18.03
2022-09-02T20:37:58.794Z,18.10
2022-09-02T20:41:06.306Z,18.13
2022-09-02T20:44:14.358Z,18.19
2022-09-02T20:47:22.247Z,18.22
2022-09-02T20:50:30.123Z,18.34
2022-09-02T20:53:38.266Z,18.37
2022-09-02T20:56:45.761Z,18.37
2022-09-02T20:59:53.641Z,18.40
2022-09-02T21:03:02.063Z,18.42
2022-09-02T21:06:09.671Z,18.40
2022-09-02T21:09:18.272Z,18.40
2022-09-02T21:12:26.238Z,18.39
2022-09-02T21:15:34.188Z,18.39
2022-09-02T21:18:42.364Z,18.27
2022-09-02T21:21:50.197Z,18.21
2022-09-02T21:24:58.051Z,18.17
2022-09-02T21:28:05.890Z,18.02
2022-09-02T21:31:14.102Z,17.92
2022-09-02T21:34:22.162Z,17.85
2022-09-02T21:37:30.172Z,17.82
2022-09-02T21:40:38.064Z,17.79
2022-09-02T21:43:45.904Z,17.74
2022-09-02T21:46:54.005Z,17.73
2022-09-02T21:50:01.817Z,17.64
2022-09-02T21:53:09.719Z,17.54
2022-09-02T21:56:17.869Z,17.50
2022-09-02T21:59:25.272Z,17.48
2022-09-02T22:02:33.592Z,17.48
2022-09-02T22:05:41.792Z,17.48
2022-09-02T22:08:49.114Z,17.50
2022-09-02T22:11:57.162Z,17.48
2022-09-02T22:15:04.865Z,17.41
2022-09-02T22:18:12.594Z,17.36
2022-09-02T22:21:20.406Z,17.29
2022-09-02T22:24:28.241Z,17.22
2022-09-02T22:27:35.960Z,17.18
2022-09-02T22:30:43.790Z,17.14
2022-09-02T22:33:51.163Z,17.08
2022-09-02T22:36:58.808Z,16.99
2022-09-02T22:40:06.599Z,16.95
2022-09-02T22:43:14.831Z,16.92
2022-09-02T22:46:22.255Z,16.89
2022-09-02T22:49:30.014Z,16.88
2022-09-02T22:52:38.273Z,16.81
2022-09-02T22:55:47.097Z,16.80
2022-09-02T22:58:54.957Z,16.74
2022-09-02T23:02:02.800Z,16.74
2022-09-02T23:05:10.160Z,16.71
2022-09-02T23:08:18.350Z,16.71
2022-09-02T23:11:26.300Z,16.73
2022-09-02T23:14:33.981Z,16.70
2022-09-02T23:17:41.782Z,16.68
2022-09-02T23:20:49.576Z,16.65
2022-09-02T23:23:57.352Z,16.59
2022-09-02T23:27:05.105Z,16.53
2022-09-02T23:30:12.446Z,16.52
2022-09-02T23:33:22.989Z,16.49
2022-09-02T23:36:31.219Z,16.45
2022-09-02T23:39:38.686Z,16.42
2022-09-02T23:42:46.781Z,16.41
2022-09-02T23:45:54.581Z,16.38
2022-09-02T23:49:02.332Z,16.35
2022-09-02T23:52:10.353Z,16.25
2022-09-02T23:55:18.078Z,16.20
2022-09-02T23:58:25.752Z,16.18
